Etusivu
METAR-TAF:

METAR-TAF

Lentoasemat :

Rota, Espanja

Leveyspiiri: 36-39N, Pituuspiiri: 006-21W, korkeus merenpinnasta: 26 m

Tämänhetkinen sää

Tämä raportti tehtiin 39 minuuttia sitten, kello 17.00 UTC
Tuuli 10 kn lännestä/lounaasta
Lämpötila 22°C
Kosteus 69%
Ilmanpaine 1015 hPa
Näkyvyys 10 km tai enemmän
ei pilviä alle 1500 m:ssä eikä cumulonimbus-pilviä

METAR: LERT 241700Z 25010KT CAVOK 22/16 Q1015 NOSIG

Aika: 19:39 (17:39 UTC)

Sääennuste

Tämä raportti tehtiin 3 tuntia ja 39 minuuttia sitten, kello 14.00 UTC
Ennuste voimassa 24. päivästä klo 15 UTC - 25. päivään klo 15 UTC
Tuuli 10 kn lännestä/lounaasta
Näkyvyys 10 km tai enemmän
ei pilviä alle 1500 m:ssä eikä cumulonimbus-pilviä
Tulossa
24. päivästä klo 21 UTC - 24. päivään klo 23 UTC
Tuuli 5 kn etelästä/kaakosta
Tulossa
25. päivästä klo 08 UTC - 25. päivään klo 10 UTC
Tuuli 10 kn lännestä/lounaasta

TAF: LERT 241400Z 2415/2515 25010KT CAVOK TX25/2514Z TN16/2506Z BECMG 2421/2423 16005KT BECMG 2508/2510 25010KT

Säähavainnot ja -ennusteet yli 4000 lentoasemalta (METAR- ja TAF-raportit).

Käytössä olevat sääasemat on merkitty karttaan keltaisilla ja punaisilla pisteillä.

Aseta hiiri pisteen päälle nähdäksesi sääaseman nimen.

Klikkaa sitten nähdäksesi säähavainnot ja -ennusteet.

Kartan vaihtaminen: klikkaa mustalla rastilla varustettuja vihreitä pisteitä, niin voit zoomata sisään; viivalla varustettua vihreää pistettä, niin voit zoomata ulos tai vihreitä nuolia, niin pääset viereisille kartoille.


METAR-TAF: